createdAt,value
2023-03-11T00:00:12.652Z,85.5
2023-03-11T00:01:28.774Z,86.2
2023-03-11T00:04:02.985Z,86.1
2023-03-11T00:05:19.111Z,86.3
2023-03-11T00:06:35.233Z,86.5
2023-03-11T00:07:52.338Z,86.8
2023-03-11T00:09:09.443Z,86.4
2023-03-11T00:10:26.548Z,85.9
2023-03-11T00:11:43.654Z,86
2023-03-11T00:13:00.759Z,85.9
2023-03-11T00:14:17.864Z,85.1
2023-03-11T00:15:34.969Z,86.1
2023-03-11T00:16:52.075Z,85.9
2023-03-11T00:18:09.180Z,84.5
2023-03-11T00:19:25.307Z,84.7
2023-03-11T00:20:41.428Z,84.4
2023-03-11T00:21:58.533Z,84.7
2023-03-11T00:23:15.639Z,84.8
2023-03-11T00:24:32.744Z,84.7
2023-03-11T00:27:06.955Z,83.9
2023-03-11T00:28:24.060Z,83.7
2023-03-11T00:29:41.165Z,83.5
2023-03-11T00:30:58.271Z,84
2023-03-11T00:32:15.376Z,84.1
2023-03-11T00:33:32.481Z,84.2
2023-03-11T00:34:49.586Z,84.5
2023-03-11T00:37:23.797Z,84.9
2023-03-11T00:38:39.923Z,84.4
2023-03-11T00:39:56.045Z,84.8
2023-03-11T00:41:13.150Z,85
2023-03-11T00:42:30.256Z,84.1
2023-03-11T00:43:47.361Z,83.9
2023-03-11T00:45:04.466Z,83.8
2023-03-11T00:46:21.572Z,83.7
2023-03-11T00:47:38.677Z,83.5
2023-03-11T00:50:12.888Z,83.3
2023-03-11T00:51:29.993Z,83.2
2023-03-11T00:52:47.098Z,82.2
2023-03-11T00:54:04.204Z,83.1
2023-03-11T00:55:21.309Z,83.6
2023-03-11T00:57:54.536Z,83.9
2023-03-11T00:59:11.641Z,84.5
2023-03-11T01:00:28.746Z,84.7
2023-03-11T01:01:45.852Z,85.4
2023-03-11T01:03:02.957Z,85.9
2023-03-11T01:05:37.168Z,86
2023-03-11T01:06:54.273Z,86.5
2023-03-11T01:08:11.378Z,87.3
2023-03-11T01:09:28.484Z,86.4
2023-03-11T01:10:45.589Z,86.8
2023-03-11T01:12:02.695Z,86.6
2023-03-11T01:13:18.816Z,85.6
2023-03-11T01:14:35.921Z,85.5
2023-03-11T01:15:53.027Z,85.7
2023-03-11T01:17:10.133Z,85.2
2023-03-11T01:18:27.238Z,84.7
2023-03-11T01:19:44.344Z,84.7
2023-03-11T01:21:01.449Z,84.3
2023-03-11T01:22:18.554Z,84.1
2023-03-11T01:23:35.660Z,84.5
2023-03-11T01:24:51.786Z,86.4
2023-03-11T01:26:07.908Z,85.6
2023-03-11T01:27:25.013Z,85.8
2023-03-11T01:28:42.119Z,86
2023-03-11T01:29:59.225Z,85.6
2023-03-11T01:31:16.330Z,85.6
2023-03-11T01:32:33.436Z,85.3
2023-03-11T01:33:50.541Z,84.5
2023-03-11T01:35:07.646Z,83.8
2023-03-11T01:36:24.752Z,84.5
2023-03-11T01:37:41.857Z,83.8
2023-03-11T01:38:57.984Z,83.8
2023-03-11T01:40:14.105Z,83
2023-03-11T01:41:31.211Z,83.4
2023-03-11T01:42:48.316Z,83.2
2023-03-11T01:44:05.422Z,82.4
2023-03-11T01:45:22.528Z,83.5
2023-03-11T01:46:39.633Z,83
2023-03-11T01:47:56.739Z,82.6
2023-03-11T01:49:13.844Z,83
2023-03-11T01:50:30.949Z,82.6
2023-03-11T01:51:48.055Z,81.8
2023-03-11T01:53:05.161Z,81.6
2023-03-11T01:54:22.266Z,81.1
2023-03-11T01:55:39.371Z,81.7
2023-03-11T01:56:55.493Z,81.6
2023-03-11T01:58:12.598Z,81.1
2023-03-11T01:59:29.704Z,80.8
2023-03-11T02:00:46.809Z,80.3
2023-03-11T02:02:03.914Z,79.8
2023-03-11T02:03:21.020Z,80.9
2023-03-11T02:04:38.125Z,81.9
2023-03-11T02:07:12.336Z,81.8
2023-03-11T02:08:29.441Z,82.5
2023-03-11T02:09:46.546Z,82
2023-03-11T02:11:03.651Z,82.6
2023-03-11T02:12:20.758Z,82.2
2023-03-11T02:14:53.985Z,82.2
2023-03-11T02:16:10.112Z,81.7
2023-03-11T02:17:26.233Z,81.8
2023-03-11T02:18:42.360Z,81.2
2023-03-11T02:19:58.481Z,81.5
2023-03-11T02:22:32.691Z,80.7
2023-03-11T02:23:49.797Z,80.3
2023-03-11T02:25:06.902Z,80.3
2023-03-11T02:26:24.007Z,79.1
2023-03-11T02:27:41.113Z,79.4
2023-03-11T02:28:58.218Z,79.7
2023-03-11T02:30:15.324Z,80.3
2023-03-11T02:31:32.429Z,79
2023-03-11T02:32:49.535Z,79.2
2023-03-11T02:34:06.640Z,79.1
2023-03-11T02:35:23.746Z,79.4
2023-03-11T02:36:39.867Z,79.6
2023-03-11T02:37:56.973Z,79.3
2023-03-11T02:39:14.078Z,79.5
2023-03-11T02:40:31.183Z,80.1
2023-03-11T02:41:48.289Z,78
2023-03-11T02:43:05.395Z,78.3
2023-03-11T02:45:39.606Z,79.1
2023-03-11T02:46:56.711Z,77.2
2023-03-11T02:48:13.816Z,76.4
2023-03-11T02:49:30.922Z,77.2
2023-03-11T02:50:48.027Z,76.7
2023-03-11T02:52:05.133Z,76.6
2023-03-11T02:53:21.254Z,76.6
2023-03-11T02:54:38.359Z,76.8
2023-03-11T02:55:55.465Z,76.2
2023-03-11T02:57:12.570Z,76
2023-03-11T02:58:29.675Z,76.3
2023-03-11T03:01:03.886Z,76.3
2023-03-11T03:02:20.991Z,76.5
2023-03-11T03:03:38.096Z,76.7
2023-03-11T03:04:55.202Z,76.9
2023-03-11T03:06:12.307Z,77.6
2023-03-11T03:08:46.517Z,77.6
2023-03-11T03:10:02.644Z,78.2
2023-03-11T03:11:18.765Z,78
2023-03-11T03:12:35.870Z,78.8
2023-03-11T03:13:52.975Z,79.1
2023-03-11T03:15:10.081Z,79.5
2023-03-11T03:16:27.186Z,79.8
2023-03-11T03:17:44.291Z,79.9
2023-03-11T03:19:01.397Z,80.1
2023-03-11T03:20:18.502Z,80
2023-03-11T03:21:34.624Z,80.4
2023-03-11T03:22:51.729Z,80.1
2023-03-11T03:24:08.834Z,80
2023-03-11T03:25:25.939Z,79.8
2023-03-11T03:26:42.066Z,80.1
2023-03-11T03:27:58.187Z,80.3
2023-03-11T03:29:15.293Z,79.5
2023-03-11T03:31:49.504Z,79.5
2023-03-11T03:34:23.714Z,79.5
2023-03-11T03:35:40.820Z,79.5
2023-03-11T03:36:57.925Z,79.1
2023-03-11T03:39:32.135Z,79
2023-03-11T03:40:49.241Z,78.1
2023-03-11T03:42:06.346Z,78.3
2023-03-11T03:43:23.452Z,77.9
2023-03-11T03:44:39.578Z,78
2023-03-11T03:47:12.805Z,77.7
2023-03-11T03:48:29.911Z,78
2023-03-11T03:49:47.016Z,78.3
2023-03-11T03:51:04.121Z,78.7
2023-03-11T03:52:21.227Z,78.3
2023-03-11T03:54:55.438Z,78.5
2023-03-11T03:56:12.543Z,78.8
2023-03-11T03:57:29.649Z,78.3
2023-03-11T03:58:46.754Z,78.9
2023-03-11T04:00:03.859Z,79
2023-03-11T04:01:20.965Z,79
2023-03-11T04:02:38.070Z,79.5
2023-03-11T04:03:54.191Z,79.2
2023-03-11T04:05:11.297Z,79.7
2023-03-11T04:06:28.403Z,79.9
2023-03-11T04:07:45.508Z,79.7
2023-03-11T04:09:02.613Z,80.2
2023-03-11T04:10:19.719Z,81.2
2023-03-11T04:12:53.929Z,80.7
2023-03-11T04:14:11.035Z,80.3
2023-03-11T04:15:28.140Z,80.4
2023-03-11T04:16:45.246Z,80.4
2023-03-11T04:18:02.351Z,79.9
2023-03-11T04:19:19.456Z,79.7
2023-03-11T04:20:35.578Z,79.8
2023-03-11T04:21:51.704Z,79.8
2023-03-11T04:23:07.826Z,78.9
2023-03-11T04:25:42.037Z,79.2
2023-03-11T04:26:59.142Z,79
2023-03-11T04:28:16.248Z,78.9
2023-03-11T04:29:33.354Z,78.9
2023-03-11T04:30:50.459Z,78.9
2023-03-11T04:32:07.565Z,78.9
2023-03-11T04:33:24.670Z,78.3
2023-03-11T04:34:41.776Z,78
2023-03-11T04:35:58.881Z,77.9
2023-03-11T04:37:15.987Z,77.4
2023-03-11T04:38:33.092Z,77.1
2023-03-11T04:41:06.320Z,76.7
2023-03-11T04:42:22.447Z,76.9
2023-03-11T04:43:39.552Z,76.9
2023-03-11T04:44:55.674Z,76.8
2023-03-11T04:46:12.780Z,76.8
2023-03-11T04:47:29.886Z,77.1
2023-03-11T04:48:46.991Z,77.3
2023-03-11T04:51:21.202Z,76.7
2023-03-11T04:52:38.308Z,77
2023-03-11T04:53:55.413Z,77.4
2023-03-11T04:55:12.519Z,77
2023-03-11T04:56:29.624Z,77.2
2023-03-11T04:57:46.730Z,77.1
2023-03-11T04:59:03.835Z,76.6
2023-03-11T05:00:20.940Z,76.5
2023-03-11T05:01:37.062Z,76.6
2023-03-11T05:02:54.167Z,77
2023-03-11T05:04:11.272Z,77.5
2023-03-11T05:05:28.378Z,77.3
2023-03-11T05:06:45.484Z,77.3
2023-03-11T05:08:02.589Z,77.4
2023-03-11T05:09:19.694Z,77.4
2023-03-11T05:10:35.821Z,77.5
2023-03-11T05:11:51.942Z,77.1
2023-03-11T05:13:09.048Z,77.1
2023-03-11T05:14:26.153Z,77.4
2023-03-11T05:15:43.258Z,77.7
2023-03-11T05:17:00.363Z,77.3
2023-03-11T05:18:17.469Z,77.5
2023-03-11T05:19:34.574Z,77.5
2023-03-11T05:20:51.680Z,77.6
2023-03-11T05:22:08.785Z,77.9
2023-03-11T05:23:25.890Z,77.7
2023-03-11T05:24:42.996Z,77.6
2023-03-11T05:26:00.101Z,77.9
2023-03-11T05:27:17.207Z,78.2
2023-03-11T05:28:33.328Z,78.7
2023-03-11T05:29:50.434Z,78
2023-03-11T05:31:07.539Z,78
2023-03-11T05:34:58.856Z,77.8
2023-03-11T05:36:14.983Z,78.2
2023-03-11T05:37:31.104Z,77.9
2023-03-11T05:38:48.209Z,78.2
2023-03-11T05:40:05.315Z,79.3
2023-03-11T05:41:22.420Z,78.8
2023-03-11T05:42:39.526Z,78.8
2023-03-11T05:43:56.631Z,78.3
2023-03-11T05:45:13.736Z,78.7
2023-03-11T05:46:30.842Z,79.2
2023-03-11T05:47:47.947Z,79.9
2023-03-11T05:49:05.053Z,80.5
2023-03-11T05:50:22.158Z,79.7
2023-03-11T05:51:38.285Z,79.6
2023-03-11T05:52:54.406Z,79.7
2023-03-11T05:54:11.512Z,79.6
2023-03-11T05:55:28.618Z,79.6
2023-03-11T05:58:02.828Z,79.6
2023-03-11T05:59:19.934Z,79.5
2023-03-11T06:00:37.039Z,79.9
2023-03-11T06:01:54.144Z,79.5
2023-03-11T06:03:11.250Z,79.5
2023-03-11T06:04:28.355Z,79.5
2023-03-11T06:05:45.461Z,79.5
2023-03-11T06:07:02.566Z,79.2
2023-03-11T06:08:19.672Z,78.9
2023-03-11T06:09:35.793Z,78.9
2023-03-11T06:10:52.898Z,78.7
2023-03-11T06:12:10.004Z,78.7
2023-03-11T06:13:27.109Z,78.7
2023-03-11T06:14:44.215Z,78.2
2023-03-11T06:16:01.320Z,78.3
2023-03-11T06:17:18.427Z,78.8
2023-03-11T06:18:35.532Z,78.9
2023-03-11T06:19:51.659Z,79.1
2023-03-11T06:21:08.765Z,78.6
2023-03-11T06:22:24.886Z,78.5
2023-03-11T06:23:41.992Z,78.2
2023-03-11T06:24:59.097Z,77.8
2023-03-11T06:26:16.202Z,78
2023-03-11T06:27:33.307Z,78
2023-03-11T06:28:50.413Z,78.4
2023-03-11T06:31:23.645Z,78.2
2023-03-11T06:32:39.772Z,78
2023-03-11T06:33:55.893Z,77.8
2023-03-11T06:36:30.105Z,77.1
2023-03-11T06:37:47.210Z,76.8
2023-03-11T06:39:04.316Z,76.6
2023-03-11T06:40:21.421Z,76.3
2023-03-11T06:41:38.526Z,76
2023-03-11T06:42:55.631Z,76.4
2023-03-11T06:44:12.737Z,76.4
2023-03-11T06:45:29.842Z,76.3
2023-03-11T06:46:46.947Z,76.2
2023-03-11T06:48:04.052Z,75.5
2023-03-11T06:49:21.158Z,76
2023-03-11T06:50:37.279Z,75.3
2023-03-11T06:51:54.384Z,75.2
2023-03-11T06:53:11.489Z,74.6
2023-03-11T06:54:28.594Z,75
2023-03-11T06:55:45.700Z,74.5
2023-03-11T06:57:02.805Z,74.6
2023-03-11T06:58:19.910Z,75.3
2023-03-11T06:59:37.015Z,74.8
2023-03-11T07:00:53.142Z,74.4
2023-03-11T07:02:09.263Z,74
2023-03-11T07:03:26.368Z,74
2023-03-11T07:04:43.473Z,74.6
2023-03-11T07:06:00.578Z,74.1
2023-03-11T07:07:17.683Z,73.7
2023-03-11T07:08:33.810Z,72.8
2023-03-11T07:09:49.931Z,72.8
2023-03-11T07:11:07.037Z,72.2
2023-03-11T07:12:24.142Z,71.7
2023-03-11T07:13:41.248Z,71.5
2023-03-11T07:14:58.353Z,71.1
2023-03-11T07:16:15.458Z,70.5
2023-03-11T07:17:32.563Z,70.8
2023-03-11T07:18:49.669Z,70.8
2023-03-11T07:20:06.774Z,70.8
2023-03-11T07:21:23.880Z,71.4
2023-03-11T07:22:40.985Z,71.7
2023-03-11T07:23:58.090Z,71.8
2023-03-11T07:25:15.195Z,71.6
2023-03-11T07:26:31.317Z,71.5
2023-03-11T07:27:48.422Z,71.1
2023-03-11T07:30:22.630Z,71
2023-03-11T07:31:39.736Z,70.1
2023-03-11T07:32:56.841Z,69.3
2023-03-11T07:34:13.946Z,69.5
2023-03-11T07:35:31.052Z,69.4
2023-03-11T07:38:04.283Z,68.9
2023-03-11T07:39:20.404Z,68.7
2023-03-11T07:40:37.509Z,68.4
2023-03-11T07:41:54.614Z,67.7
2023-03-11T07:43:11.719Z,67.2
2023-03-11T07:44:28.824Z,66.7
2023-03-11T07:45:45.929Z,66
2023-03-11T07:47:03.034Z,65.6
2023-03-11T07:48:20.139Z,64.9
2023-03-11T07:49:37.244Z,63.5
2023-03-11T07:50:54.349Z,63.9
2023-03-11T07:52:11.454Z,64.4
2023-03-11T07:53:28.559Z,63
2023-03-11T07:54:45.664Z,62.4
2023-03-11T07:56:01.785Z,60.3
2023-03-11T07:57:18.890Z,60.6
2023-03-11T07:58:35.995Z,60.9
2023-03-11T07:59:53.099Z,61.3
2023-03-11T08:01:10.204Z,60.9
2023-03-11T08:02:27.309Z,62.3
2023-03-11T08:03:44.414Z,61.3
2023-03-11T08:05:01.520Z,59.2
2023-03-11T08:06:18.624Z,58.1
2023-03-11T08:08:52.834Z,57.4
2023-03-11T08:10:09.939Z,56.9
2023-03-11T08:11:27.044Z,57.3
2023-03-11T08:12:43.165Z,57.3
2023-03-11T08:14:00.269Z,55.5
2023-03-11T08:15:17.375Z,55.7
2023-03-11T08:16:34.480Z,54.1
2023-03-11T08:17:51.584Z,54.1
2023-03-11T08:19:08.689Z,52.6
2023-03-11T08:20:25.794Z,52.1
2023-03-11T08:21:42.898Z,51.8
2023-03-11T08:23:00.003Z,51.2
2023-03-11T08:24:17.107Z,51.3
2023-03-11T08:25:34.212Z,51.3
2023-03-11T08:26:51.317Z,51.4
2023-03-11T08:28:08.421Z,51.9
2023-03-11T08:29:24.541Z,50.4
2023-03-11T08:30:41.646Z,51.5
2023-03-11T08:31:58.750Z,50
2023-03-11T08:33:15.855Z,51.2
2023-03-11T08:34:32.959Z,51.6
2023-03-11T08:35:50.064Z,52.4
2023-03-11T08:37:07.168Z,51.9
2023-03-11T08:38:24.272Z,53.7
2023-03-11T08:39:41.377Z,51
2023-03-11T08:40:58.482Z,51.7
2023-03-11T08:42:15.586Z,50.7
2023-03-11T08:43:32.691Z,50.6
2023-03-11T08:44:49.795Z,50.6
2023-03-11T08:46:06.900Z,49.7
2023-03-11T08:47:23.020Z,51.1
2023-03-11T08:48:40.125Z,51.4
2023-03-11T08:49:57.229Z,50
2023-03-11T08:51:14.334Z,48.9
2023-03-11T08:52:31.438Z,48.4
2023-03-11T08:53:48.543Z,49.7
2023-03-11T08:55:05.647Z,50.4
2023-03-11T08:56:22.751Z,50.4
2023-03-11T08:57:39.855Z,48.6
2023-03-11T08:58:56.959Z,48.8
2023-03-11T09:00:14.064Z,47.7
2023-03-11T09:01:31.168Z,48.4
2023-03-11T09:02:48.272Z,47.4
2023-03-11T09:04:04.393Z,46.3
2023-03-11T09:05:21.497Z,45.4
2023-03-11T09:06:38.601Z,47.1
2023-03-11T09:07:55.705Z,50.4
2023-03-11T09:09:12.810Z,49.1
2023-03-11T09:10:29.914Z,48.3
2023-03-11T09:13:04.122Z,51
2023-03-11T09:14:21.227Z,50.7
2023-03-11T09:15:38.331Z,51.1
2023-03-11T09:16:55.435Z,50.6
2023-03-11T09:18:12.540Z,50.7
2023-03-11T09:19:29.644Z,50.3
2023-03-11T09:20:45.765Z,51
2023-03-11T09:22:02.869Z,50.2
2023-03-11T09:24:37.077Z,51.9
2023-03-11T09:25:54.182Z,51.3
2023-03-11T09:27:11.286Z,50
2023-03-11T09:28:28.390Z,50.7
2023-03-11T09:29:45.495Z,51.4
2023-03-11T09:31:02.599Z,50.5
2023-03-11T09:33:36.808Z,48.3
2023-03-11T09:34:52.934Z,49.6
2023-03-11T09:37:26.159Z,52
2023-03-11T09:38:43.263Z,50.5
2023-03-11T09:40:00.368Z,49.1
2023-03-11T09:41:17.472Z,52.5
2023-03-11T09:42:34.576Z,50.3
2023-03-11T09:43:51.680Z,50.4
2023-03-11T09:45:08.785Z,50.1
2023-03-11T09:46:25.889Z,49.2
2023-03-11T09:47:42.993Z,51.1
2023-03-11T09:50:17.202Z,48.6
2023-03-11T09:51:34.307Z,48.4
2023-03-11T09:52:50.428Z,48.5
2023-03-11T09:54:07.532Z,49.5
2023-03-11T09:55:24.636Z,50.7
2023-03-11T09:56:41.740Z,51.5
2023-03-11T09:57:58.845Z,50.8
2023-03-11T09:59:15.949Z,49.4
2023-03-11T10:00:33.053Z,49.9
2023-03-11T10:03:07.262Z,51.8
2023-03-11T10:04:24.367Z,52.5
2023-03-11T10:05:41.472Z,53.1
2023-03-11T10:06:58.577Z,54
2023-03-11T10:08:15.682Z,54.1
2023-03-11T10:09:31.802Z,55.1
2023-03-11T10:10:48.907Z,52.6
2023-03-11T10:12:06.013Z,53
2023-03-11T10:13:23.117Z,51.1
2023-03-11T10:15:57.327Z,49.2
2023-03-11T10:17:13.453Z,50.9
2023-03-11T10:18:29.574Z,49.2
2023-03-11T10:19:46.678Z,48.9
2023-03-11T10:21:03.783Z,48.6
2023-03-11T10:22:20.888Z,48.5
2023-03-11T10:23:37.993Z,48
2023-03-11T10:24:55.098Z,48.6
2023-03-11T10:26:12.203Z,48.7
2023-03-11T10:27:29.308Z,49
2023-03-11T10:28:46.412Z,49
2023-03-11T10:30:03.517Z,48.2
2023-03-11T10:31:19.643Z,49
2023-03-11T10:32:35.764Z,48.2
2023-03-11T10:33:52.869Z,52.1
2023-03-11T10:35:09.974Z,51.1
2023-03-11T10:36:27.079Z,49.3
2023-03-11T10:37:44.185Z,49.1
2023-03-11T10:39:01.289Z,50.9
2023-03-11T10:40:18.394Z,48.8
2023-03-11T10:41:35.499Z,49.8
2023-03-11T10:42:52.603Z,48.2
2023-03-11T10:44:09.708Z,47.6
2023-03-11T10:45:25.834Z,48.2
2023-03-11T10:46:41.955Z,47.4
2023-03-11T10:47:59.059Z,49.2
2023-03-11T10:49:16.164Z,49.7
2023-03-11T10:50:33.269Z,49.5
2023-03-11T10:53:07.478Z,51.1
2023-03-11T10:54:24.582Z,51.1
2023-03-11T10:55:41.687Z,49.4
2023-03-11T10:56:58.791Z,50.7
2023-03-11T10:58:15.896Z,48.8
2023-03-11T10:59:33.000Z,48.7
2023-03-11T11:00:50.105Z,48.9
2023-03-11T11:02:07.210Z,49.5
2023-03-11T11:03:23.330Z,51.1
2023-03-11T11:04:40.435Z,49.3
2023-03-11T11:05:57.539Z,49.5
2023-03-11T11:07:14.644Z,50.9
2023-03-11T11:08:31.748Z,50
2023-03-11T11:09:48.853Z,50.1
2023-03-11T11:11:05.957Z,50.1
2023-03-11T11:12:23.062Z,50
2023-03-11T11:13:40.167Z,50.7
2023-03-11T11:14:57.271Z,50.7
2023-03-11T11:16:14.376Z,50.4
2023-03-11T11:17:31.480Z,50
2023-03-11T11:18:48.585Z,50.9
2023-03-11T11:20:05.689Z,51.4
2023-03-11T11:21:21.810Z,51.1
2023-03-11T11:22:38.915Z,50.3
2023-03-11T11:23:56.019Z,49.2
2023-03-11T11:25:13.124Z,50.7
2023-03-11T11:26:30.228Z,50.1
2023-03-11T11:27:47.334Z,49.9
2023-03-11T11:29:04.438Z,50.1
2023-03-11T11:30:21.543Z,49.7
2023-03-11T11:31:38.648Z,50.4
2023-03-11T11:32:55.753Z,50.2
2023-03-11T11:34:12.858Z,49.6
2023-03-11T11:35:29.963Z,49.9
2023-03-11T11:36:47.067Z,50.1
2023-03-11T11:38:03.188Z,49.6
2023-03-11T11:39:20.293Z,49.8
2023-03-11T11:40:37.397Z,48.3
2023-03-11T11:41:54.502Z,48.3
2023-03-11T11:43:11.607Z,49.5
2023-03-11T11:44:28.712Z,51.2
2023-03-11T11:45:45.817Z,52
2023-03-11T11:47:02.922Z,52.2
2023-03-11T11:48:20.026Z,53.2
2023-03-11T11:49:37.131Z,52.5
2023-03-11T11:50:54.236Z,50.8
2023-03-11T11:52:11.340Z,51.5
2023-03-11T11:53:28.445Z,52
2023-03-11T11:54:44.566Z,52.3
2023-03-11T11:56:01.671Z,50.8
2023-03-11T11:57:17.791Z,50.9
2023-03-11T11:58:34.896Z,50.7
2023-03-11T11:59:52.001Z,51.4
2023-03-11T12:01:09.106Z,49.1
2023-03-11T12:02:26.210Z,49.5
2023-03-11T12:03:43.315Z,50
2023-03-11T12:05:00.419Z,48.8
2023-03-11T12:06:17.524Z,48.2
2023-03-11T12:07:34.628Z,47.9
2023-03-11T12:08:51.733Z,48.6
2023-03-11T12:10:08.838Z,48.7
2023-03-11T12:11:25.942Z,48.1
2023-03-11T12:12:43.047Z,47.4
2023-03-11T12:13:59.167Z,47.9
2023-03-11T12:15:16.272Z,47.7
2023-03-11T12:16:33.376Z,48.3
2023-03-11T12:17:50.481Z,47.8
2023-03-11T12:19:07.586Z,47.3
2023-03-11T12:20:24.691Z,48.4
2023-03-11T12:21:41.795Z,49.2
2023-03-11T12:22:58.900Z,49.4
2023-03-11T12:24:16.004Z,48.1
2023-03-11T12:25:33.109Z,49.5
2023-03-11T12:26:50.213Z,48.5
2023-03-11T12:28:07.318Z,48
2023-03-11T12:29:24.422Z,48.8
2023-03-11T12:30:40.543Z,47.9
2023-03-11T12:31:57.648Z,48.6
2023-03-11T12:33:14.752Z,49.1
2023-03-11T12:34:31.857Z,48.6
2023-03-11T12:35:48.961Z,48.6
2023-03-11T12:37:06.066Z,49.5
2023-03-11T12:38:23.168Z,47.9
2023-03-11T12:39:40.273Z,48.4
2023-03-11T12:40:57.378Z,48.5
2023-03-11T12:42:14.482Z,48.6
2023-03-11T12:43:31.587Z,48.5
2023-03-11T12:44:48.691Z,47.1
2023-03-11T12:46:05.796Z,48.4
2023-03-11T12:48:39.021Z,48.7
2023-03-11T12:49:56.126Z,49
2023-03-11T12:51:13.230Z,49.2
2023-03-11T12:52:30.335Z,48.3
2023-03-11T12:53:47.440Z,48.3
2023-03-11T12:55:04.544Z,48.9
2023-03-11T12:56:21.649Z,47.5
2023-03-11T12:57:38.753Z,49
2023-03-11T12:58:55.858Z,48.9
2023-03-11T13:01:30.067Z,48.5
2023-03-11T13:02:47.171Z,48.3
2023-03-11T13:04:03.292Z,46.9
2023-03-11T13:05:20.397Z,48
2023-03-11T13:06:37.501Z,48.3
2023-03-11T13:07:54.606Z,48.2
2023-03-11T13:09:11.710Z,49.6
2023-03-11T13:11:45.920Z,49.6
2023-03-11T13:13:02.045Z,49.7
2023-03-11T13:14:18.166Z,50.3
2023-03-11T13:15:35.271Z,51.2
2023-03-11T13:16:52.375Z,51.5
2023-03-11T13:18:09.480Z,51.2
2023-03-11T13:19:26.585Z,52
2023-03-11T13:20:43.690Z,51.5
2023-03-11T13:22:00.794Z,51.5
2023-03-11T13:23:17.899Z,49.7
2023-03-11T13:24:35.004Z,50
2023-03-11T13:25:52.109Z,49.7
2023-03-11T13:27:08.235Z,50.3
2023-03-11T13:28:25.340Z,50.8
2023-03-11T13:29:42.445Z,50.6
2023-03-11T13:30:58.566Z,49.7
2023-03-11T13:32:15.670Z,49.7
2023-03-11T13:33:32.775Z,50
2023-03-11T13:34:49.880Z,49.8
2023-03-11T13:36:06.985Z,49.7
2023-03-11T13:37:24.090Z,49.2
2023-03-11T13:38:41.194Z,49.1
2023-03-11T13:39:58.299Z,49
2023-03-11T13:41:15.404Z,49.3
2023-03-11T13:42:32.508Z,47.9
2023-03-11T13:43:49.613Z,49.6
2023-03-11T13:45:06.718Z,49.3
2023-03-11T13:46:23.822Z,48.6
2023-03-11T13:47:39.943Z,49
2023-03-11T13:48:57.048Z,48.9
2023-03-11T13:50:14.152Z,49.2
2023-03-11T13:51:31.257Z,48.7
2023-03-11T13:52:48.361Z,48.2
2023-03-11T13:54:05.467Z,48.2
2023-03-11T13:55:22.572Z,50
2023-03-11T13:56:39.676Z,49.7
2023-03-11T13:57:56.781Z,50.7
2023-03-11T13:59:13.885Z,49.8
2023-03-11T14:00:30.990Z,49.7
2023-03-11T14:01:48.095Z,49.7
2023-03-11T14:03:05.200Z,49.4
2023-03-11T14:05:38.425Z,49.6
2023-03-11T14:06:55.530Z,49.4
2023-03-11T14:08:12.635Z,49.7
2023-03-11T14:09:29.740Z,50.1
2023-03-11T14:10:46.845Z,48.5
2023-03-11T14:12:03.949Z,48.9
2023-03-11T14:13:21.054Z,48.8
2023-03-11T14:14:38.159Z,48.7
2023-03-11T14:15:55.264Z,48.8
2023-03-11T14:17:12.369Z,49
2023-03-11T14:18:29.474Z,48.4
2023-03-11T14:19:46.579Z,49
2023-03-11T14:21:02.699Z,48.8
2023-03-11T14:22:19.804Z,48.3
2023-03-11T14:23:36.909Z,48.4
2023-03-11T14:24:54.014Z,48.9
2023-03-11T14:26:11.119Z,48.7
2023-03-11T14:27:28.223Z,49.5
2023-03-11T14:28:45.328Z,49
2023-03-11T14:30:02.433Z,49.1
2023-03-11T14:31:19.538Z,48.8
2023-03-11T14:32:36.643Z,49.2
2023-03-11T14:33:53.748Z,49.4
2023-03-11T14:35:10.853Z,48.4
2023-03-11T14:36:27.958Z,47.7
2023-03-11T14:37:44.079Z,48.5
2023-03-11T14:39:01.184Z,48.1
2023-03-11T14:40:18.289Z,47.6
2023-03-11T14:41:35.393Z,47.5
2023-03-11T14:42:52.498Z,47.7
2023-03-11T14:44:09.603Z,48
2023-03-11T14:45:26.708Z,48.9
2023-03-11T14:46:43.813Z,50.2
2023-03-11T14:48:00.918Z,49.7
2023-03-11T14:49:18.023Z,48.6
2023-03-11T14:50:35.127Z,48.7
2023-03-11T14:51:52.232Z,49.5
2023-03-11T14:53:09.337Z,49.1
2023-03-11T14:54:25.458Z,48.5
2023-03-11T14:55:42.563Z,47.8
2023-03-11T14:56:59.668Z,48.5
2023-03-11T14:58:16.772Z,49
2023-03-11T15:00:50.982Z,50.4
2023-03-11T15:02:08.087Z,49.7
2023-03-11T15:03:25.192Z,48.9
2023-03-11T15:04:42.296Z,49.2
2023-03-11T15:05:59.401Z,49
2023-03-11T15:07:16.506Z,49.4
2023-03-11T15:08:33.611Z,49.8
2023-03-11T15:09:50.716Z,50.3
2023-03-11T15:11:06.837Z,50.6
2023-03-11T15:13:41.047Z,49.9
2023-03-11T15:14:58.152Z,50.4
2023-03-11T15:16:15.256Z,50.4
2023-03-11T15:17:32.361Z,50
2023-03-11T15:18:49.466Z,48.6
2023-03-11T15:20:06.571Z,49.2
2023-03-11T15:21:23.676Z,49.1
2023-03-11T15:22:40.781Z,48.9
2023-03-11T15:23:57.886Z,49
2023-03-11T15:25:14.990Z,48.7
2023-03-11T15:26:32.095Z,48.9
2023-03-11T15:27:48.216Z,48.4
2023-03-11T15:29:05.321Z,48.9
2023-03-11T15:30:22.426Z,48.1
2023-03-11T15:31:39.531Z,48.2
2023-03-11T15:32:56.636Z,47.8
2023-03-11T15:34:13.741Z,48.1
2023-03-11T15:35:30.845Z,48.2
2023-03-11T15:36:47.950Z,48.3
2023-03-11T15:38:05.055Z,47.3
2023-03-11T15:39:22.161Z,47.7
2023-03-11T15:40:39.266Z,49
2023-03-11T15:41:56.370Z,49.2
2023-03-11T15:43:13.476Z,49.5
2023-03-11T15:44:29.596Z,48.5
2023-03-11T15:45:46.701Z,49.1
2023-03-11T15:47:03.806Z,49.7
2023-03-11T15:48:20.911Z,49.3
2023-03-11T15:49:38.015Z,48.4
2023-03-11T15:50:55.120Z,49.6
2023-03-11T15:52:12.225Z,48.8
2023-03-11T15:53:29.330Z,49.1
2023-03-11T15:54:46.435Z,48.5
2023-03-11T15:56:03.540Z,48.5
2023-03-11T15:57:20.644Z,47.9
2023-03-11T15:58:37.749Z,49.4
2023-03-11T15:59:54.854Z,50.1
2023-03-11T16:01:10.975Z,50.3
2023-03-11T16:02:28.080Z,50.1
2023-03-11T16:03:45.184Z,50.3
2023-03-11T16:05:02.289Z,49.4
2023-03-11T16:06:19.394Z,49.2
2023-03-11T16:08:53.604Z,49.4
2023-03-11T16:10:10.709Z,49.5
2023-03-11T16:11:27.814Z,48.8
2023-03-11T16:12:44.918Z,49
2023-03-11T16:14:02.023Z,49.7
2023-03-11T16:15:18.144Z,50
2023-03-11T16:16:35.249Z,49.8
2023-03-11T16:17:52.354Z,50.2
2023-03-11T16:19:09.459Z,50
2023-03-11T16:20:26.564Z,51.1
2023-03-11T16:21:43.669Z,50.8
2023-03-11T16:23:00.774Z,50.4
2023-03-11T16:25:34.984Z,51.1
2023-03-11T16:26:52.089Z,49.9
2023-03-11T16:28:09.194Z,49.4
2023-03-11T16:29:26.299Z,49.6
2023-03-11T16:30:43.404Z,49.6
2023-03-11T16:31:59.525Z,50.2
2023-03-11T16:33:16.630Z,50.4
2023-03-11T16:34:33.735Z,50
2023-03-11T16:35:50.840Z,50.7
2023-03-11T16:37:07.945Z,51.1
2023-03-11T16:38:25.051Z,51.5
2023-03-11T16:39:42.156Z,51.3
2023-03-11T16:40:59.261Z,50.7
2023-03-11T16:42:16.366Z,51.6
2023-03-11T16:43:33.471Z,51.2
2023-03-11T16:44:50.575Z,51.5
2023-03-11T16:46:07.680Z,51.8
2023-03-11T16:47:24.785Z,51.8
2023-03-11T16:48:40.906Z,51.9
2023-03-11T16:49:58.011Z,51.9
2023-03-11T16:51:15.116Z,51.8
2023-03-11T16:52:32.221Z,52.4
2023-03-11T16:53:49.326Z,52.6
2023-03-11T16:55:06.431Z,52.7
2023-03-11T16:56:23.536Z,53
2023-03-11T16:57:40.641Z,52.4
2023-03-11T16:58:57.746Z,52.7
2023-03-11T17:00:14.851Z,52.8
2023-03-11T17:01:31.956Z,53.1
2023-03-11T17:02:49.061Z,52.7
2023-03-11T17:04:06.167Z,52.8
2023-03-11T17:05:22.288Z,53.1
2023-03-11T17:06:39.393Z,53.3
2023-03-11T17:07:56.498Z,53.1
2023-03-11T17:09:13.604Z,53.3
2023-03-11T17:10:30.709Z,53.5
2023-03-11T17:11:47.814Z,53
2023-03-11T17:13:04.919Z,53.3
2023-03-11T17:14:22.024Z,53.2
2023-03-11T17:15:39.128Z,54.1
2023-03-11T17:16:56.233Z,54.3
2023-03-11T17:18:13.338Z,54
2023-03-11T17:19:30.443Z,54.2
2023-03-11T17:20:47.548Z,54.7
2023-03-11T17:22:03.669Z,55.6
2023-03-11T17:23:20.774Z,55.4
2023-03-11T17:24:37.879Z,55.2
2023-03-11T17:25:54.984Z,55.4
2023-03-11T17:27:12.089Z,55.7
2023-03-11T17:28:29.194Z,56.4
2023-03-11T17:29:46.300Z,56.6
2023-03-11T17:31:03.404Z,56.5
2023-03-11T17:32:20.509Z,56.4
2023-03-11T17:33:37.614Z,57
2023-03-11T17:34:54.720Z,56.9
2023-03-11T17:36:11.825Z,56.6
2023-03-11T17:38:46.035Z,57.5
2023-03-11T17:40:02.156Z,58.7
2023-03-11T17:41:19.261Z,58.9
2023-03-11T17:42:36.366Z,59.1
2023-03-11T17:43:53.471Z,59.2
2023-03-11T17:45:10.576Z,58.7
2023-03-11T17:46:27.681Z,58.9
2023-03-11T17:47:44.787Z,59.4
2023-03-11T17:50:18.998Z,59.6
2023-03-11T17:51:36.103Z,60
2023-03-11T17:52:53.208Z,60.5
2023-03-11T17:54:10.313Z,60.4
2023-03-11T17:55:27.418Z,60.5
2023-03-11T17:56:43.540Z,60.7
2023-03-11T17:58:00.645Z,60.3
2023-03-11T17:59:17.751Z,60.2
2023-03-11T18:00:34.856Z,60.5
2023-03-11T18:01:51.961Z,60.9
2023-03-11T18:03:09.067Z,61.6
2023-03-11T18:04:26.172Z,61.8
2023-03-11T18:05:43.277Z,62.2
2023-03-11T18:07:00.382Z,62
2023-03-11T18:08:17.488Z,62
2023-03-11T18:09:34.593Z,62.2
2023-03-11T18:10:51.698Z,62.6
2023-03-11T18:12:08.804Z,63.5